Terminal Aerodrome Forecast
Issued by NWS Austin/San Antonio, TX

Home | Current Version | Previous Version | Text Only | Print | Product List | Glossary On
Versions: 1 2 3 4 5 6 7 8 9 10 11 12 13 14 15 16
000
FTUS44 KEWX 231730
TAFSAT
TAF
KSAT 231730Z 2318/2424 18008KT P6SM SCT250
     FM240700 15006KT P6SM BKN012
     FM241500 14006KT P6SM SCT025 BKN100
     FM241700 10005KT P6SM SCT045 BKN100=

USA.gov is the U.S. government's official web portal to all federal, state and local government web resources and services.